PROFILE

 METAR AND TAF INFORMATION
ADDS - METARS form results

(0423 UTC 25 April 2019)
http://aviationweather.gov/metar/data/
 
LIRN 250350Z 02005KT CAVOK 15/09 Q1017 NOSIG
TAF LIRN 242300Z 2500/2524 VRB05KT CAVOK BECMG 2509/2511 20010KT BECMG 2517/2519 VRB05KT 

 AIRPORT MAP

 RUNWAY INFORMATION
Runway 06 Runway length 8622 ft Runway width 148 ft
Runway elevation 284 ft Runway displaced threshold 1309 ft Runway heading 58
Runway 24 Runway length 8622 ft Runway width 148 ft
Runway elevation 223 ft Runway displaced threshold 624 ft Runway heading 238

 AIRPORT FREQUENCIES
Type APP Name NAPOLI RAD Frequency 124.35 MHZ
Type ATIS Name ATIS Frequency 135.975 MHZ
Type DIR Name NAPOLI DIR Frequency 120.95 MHZ
Type GCCD Name NAPOLI GND Frequency 121.9 MHZ
Type OPS Name USN BASE O Frequency 118.275 MHZ
Type PMSV Name PMSV METRO Frequency 34.1 MHZ
Type POST Name ATOC Frequency 118.275 MHZ
Type TWR Name NAPOLI TWR Frequency 118.5 MHZ

 AIRPORT NEAR NAVIGATION AIDS
Type VOR-DME Name Pomigliano Frequency 117850 KHZ
Type NDB Name Pomigliano Frequency 351 KHZ